Latest Weather Observations for Coldstream

IDV60801

Issued at 10:03 am EST Friday 28 April 2017 (issued every 30 minutes, with the page automatically refreshed every 10 minutes)

About weather observations | Map of weather stations | Latest weather observations for VIC | Other Formats
Station Details ID: 086383 Name: COLDSTREAM Lat: -37.72 Lon: 145.41 Height: 83.0 m
Data from the previous 72 hours. | See also: Recent months at Coldstream
Date/Time
EST
Temp
°C
App
Temp
°C
Dew
Point
°C
Rel
Hum
%
Delta-T
°C
Wind Press
QNH
hPa
Press
MSL
hPa
Rain since
9am
mm
Dir  Spd
km/h
Gust
km/h
Spd
kts
Gust
kts
28/10:00am 14.6 13.5 10.6 77 2.1 NNE 7 11 4 6 1024.4 1024.4 0.0
28/09:30am 13.8 12.8 11.1 84 1.4 NNE 7 11 4 6 1024.4 1024.4 0.0
28/09:00am 13.0 12.2 10.9 87 1.1 N 6 11 3 6 1024.4 1024.4 1.4
28/08:30am 12.4 11.6 11.0 91 0.7 NNE 6 13 3 7 1024.1 1024.1 1.4
28/08:00am 11.8 12.1 10.9 94 0.5 CALM 0 0 0 0 1024.0 1024.0 1.4
28/07:30am 11.3 11.5 10.4 94 0.5 CALM 0 4 0 2 1023.7 1023.7 1.4
28/07:00am 11.1 10.1 10.3 95 0.4 NE 6 7 3 4 1023.6 1023.6 1.4
28/06:30am 11.0 10.3 10.2 95 0.4 ENE 4 7 2 4 1023.3 1023.3 1.4
28/06:00am 10.9 10.7 10.3 96 0.3 NE 2 6 1 3 1023.2 1023.2 1.4
28/05:30am 10.7 10.4 10.2 97 0.3 NE 2 7 1 4 1023.2 1023.2 1.4
28/05:00am 10.6 10.7 10.1 97 0.3 CALM 0 0 0 0 1023.1 1023.1 1.4
28/04:30am 10.5 10.6 10.0 97 0.3 CALM 0 0 0 0 1022.9 1022.9 1.4
28/04:00am 10.4 10.4 9.9 97 0.3 CALM 0 0 0 0 1022.8 1022.8 1.4
28/03:30am 10.4 10.5 10.1 98 0.2 CALM 0 0 0 0 1022.9 1022.9 1.4
28/03:00am 10.2 9.1 10.1 99 0.1 NNE 6 9 3 5 1023.0 1023.0 1.4
28/02:30am 9.9 9.9 9.8 99 0.1 CALM 0 0 0 0 1023.3 1023.3 1.4
28/02:00am 9.7 9.3 9.6 99 0.0 E 2 7 1 4 1023.5 1023.5 1.4
28/01:30am 9.7 9.6 9.6 99 0.1 CALM 0 0 0 0 1023.5 1023.5 1.4
28/01:00am 9.4 9.3 9.3 99 0.0 CALM 0 0 0 0 1023.6 1023.6 1.4
28/12:30am 9.0 8.8 8.9 99 0.0 CALM 0 0 0 0 1023.6 1023.6 1.4
28/12:00am 9.2 9.0 9.1 99 0.0 CALM 0 0 0 0 1023.8 1023.8 1.4
 
Date/Time
EST
Temp
°C
App
Temp
°C
Dew
Point
°C
Rel
Hum
%
Delta-T
°C
Wind Press
QNH
hPa
Press
MSL
hPa
Rain since
9am
mm
Dir  Spd
km/h
Gust
km/h
Spd
kts
Gust
kts
27/11:30pm 9.3 9.1 9.2 99 0.0 CALM 0 0 0 0 1023.7 1023.7 1.4
27/11:00pm 9.4 9.3 9.3 99 0.0 CALM 0 0 0 0 1023.8 1023.8 1.4
27/10:30pm 9.6 9.5 9.3 98 0.1 CALM 0 0 0 0 1023.8 1023.8 1.4
27/10:00pm 9.7 9.6 9.4 98 0.1 CALM 0 0 0 0 1023.8 1023.8 1.4
27/09:30pm 9.8 9.3 9.5 98 0.2 N 2 6 1 3 1023.9 1023.9 1.4
27/09:00pm 9.8 9.7 9.5 98 0.1 CALM 0 0 0 0 1023.6 1023.6 1.4
27/08:30pm 9.9 9.4 9.4 97 0.2 NNE 2 6 1 3 1023.5 1023.5 1.2
27/08:00pm 10.3 10.2 9.5 95 0.4 CALM 0 0 0 0 1023.8 1023.8 1.2
27/07:30pm 10.3 9.5 9.5 95 0.4 WNW 4 7 2 4 1023.8 1023.8 1.2
27/07:00pm 10.4 8.9 9.2 92 0.6 W 7 9 4 5 1023.6 1023.6 1.2
27/06:30pm 10.9 8.4 8.3 84 1.3 SW 11 17 6 9 1023.2 1023.2 1.2
27/06:00pm 11.2 8.3 8.1 81 1.5 SW 13 19 7 10 1022.8 1022.8 1.2
27/05:30pm 11.4 9.3 8.4 82 1.5 SW 9 13 5 7 1022.7 1022.7 1.2
27/05:00pm 11.5 9.0 8.2 80 1.6 SW 11 15 6 8 1022.7 1022.7 1.2
27/04:30pm 11.8 7.3 7.1 73 2.3 SW 20 24 11 13 1022.5 1022.5 1.2
27/04:00pm 12.2 9.4 8.7 79 1.7 W 13 17 7 9 1022.7 1022.7 1.2
27/03:30pm 13.0 10.3 5.7 61 3.4 SW 9 24 5 13 1022.7 1022.7 1.2
27/03:00pm 12.7 11.0 8.2 74 2.2 S 7 13 4 7 1022.6 1022.6 1.2
27/02:30pm 11.9 10.8 10.8 93 0.6 SSE 7 11 4 6 1022.9 1022.9 1.2
27/02:00pm 10.7 9.4 9.3 91 0.7 W 6 11 3 6 1022.6 1022.6 1.2
27/01:30pm 10.9 8.1 8.7 86 1.1 W 13 19 7 10 1022.3 1022.3 0.0
27/01:00pm 11.7 9.5 8.0 78 1.8 NNW 9 13 5 7 1022.5 1022.5 0.0
27/12:30pm 12.5 10.9 8.8 78 1.9 N 7 13 4 7 1022.7 1022.7 0.0
27/12:00pm 11.4 9.4 8.8 84 1.3 WNW 9 15 5 8 1023.2 1023.2 0.0
27/11:30am 11.3 8.9 8.7 84 1.3 ESE 11 15 6 8 1023.3 1023.3 0.0
27/11:00am 11.2 10.5 8.6 84 1.3 NNE 2 7 1 4 1023.3 1023.3 0.0
27/10:30am 10.1 9.4 8.4 89 0.8 N 2 6 1 3 1023.1 1023.1 0.0
27/10:00am 9.8 9.1 8.6 92 0.6 NNW 2 6 1 3 1023.1 1023.1 0.0
27/09:30am 9.6 8.2 8.8 95 0.4 WSW 6 9 3 5 1023.3 1023.3 0.0
27/09:00am 8.9 8.2 8.5 97 0.2 NNW 2 11 1 6 1023.0 1023.0 3.8
27/08:30am 8.4 8.0 8.1 98 0.1 CALM 0 4 0 2 1022.7 1022.7 3.8
27/08:00am 8.1 7.6 7.8 98 0.1 CALM 0 0 0 0 1022.4 1022.4 3.8
27/07:30am 7.8 6.8 7.5 98 0.1 S 2 6 1 3 1022.3 1022.3 3.6
27/07:00am 7.6 5.3 7.3 98 0.1 WNW 9 15 5 8 1021.7 1021.7 3.4
27/06:30am 7.6 5.8 7.3 98 0.1 WSW 6 11 3 6 1021.4 1021.4 3.4
27/06:00am 7.6 5.7 7.5 99 0.0 WSW 7 9 4 5 1021.2 1021.2 3.4
27/05:30am 7.5 6.9 7.2 98 0.1 CALM 0 0 0 0 1020.9 1020.9 3.2
27/05:00am 7.2 5.3 6.9 98 0.1 NW 6 7 3 4 1020.2 1020.2 3.2
27/04:30am 7.4 6.7 7.1 98 0.1 CALM 0 0 0 0 1020.0 1020.0 3.2
27/04:00am 7.4 5.6 7.1 98 0.1 W 6 7 3 4 1019.9 1019.9 3.2
27/03:30am 7.3 4.9 7.0 98 0.1 E 9 13 5 7 1020.0 1020.0 3.2
27/03:00am 7.3 5.3 6.9 97 0.2 W 7 11 4 6 1019.9 1019.9 3.2
27/02:30am 7.0 5.8 6.4 96 0.3 NNW 2 6 1 3 1020.0 1020.0 3.2
27/02:00am 7.4 6.6 6.7 95 0.3 CALM 0 0 0 0 1020.1 1020.1 2.8
27/01:30am 7.3 5.1 6.4 94 0.4 NW 7 9 4 5 1019.9 1019.9 2.8
27/01:00am 7.6 6.7 6.2 91 0.6 CALM 0 6 0 3 1019.4 1019.4 2.8
27/12:30am 7.2 5.2 6.3 94 0.4 E 6 17 3 9 1019.8 1019.8 2.8
27/12:00am 7.3 5.5 5.6 89 0.8 SSW 4 9 2 5 1019.3 1019.3 2.6
 
Date/Time
EST
Temp
°C
App
Temp
°C
Dew
Point
°C
Rel
Hum
%
Delta-T
°C
Wind Press
QNH
hPa
Press
MSL
hPa
Rain since
9am
mm
Dir  Spd
km/h
Gust
km/h
Spd
kts
Gust
kts
26/11:30pm 7.4 5.4 6.3 93 0.5 SW 6 9 3 5 1019.3 1019.3 2.6
26/11:00pm 6.6 4.5 5.9 95 0.3 SSE 6 13 3 7 1019.5 1019.5 2.0
26/10:30pm 6.3 4.9 5.3 93 0.4 NNW 2 6 1 3 1019.3 1019.3 2.0
26/10:00pm 6.3 4.8 5.1 92 0.5 WNW 2 6 1 3 1019.2 1019.2 2.0
26/09:30pm 6.6 4.3 5.7 94 0.4 SE 7 17 4 9 1019.0 1019.0 2.0
26/09:00pm 6.1 4.1 4.4 89 0.7 N 4 7 2 4 1018.7 1018.7 2.0
26/08:30pm 7.2 6.1 4.9 85 1.0 CALM 0 0 0 0 1018.3 1018.3 2.0
26/08:00pm 8.1 5.9 5.2 82 1.3 SE 6 11 3 6 1018.0 1018.0 2.0
26/07:30pm 8.7 4.4 5.4 80 1.5 W 17 24 9 13 1017.8 1017.8 2.0
26/07:00pm 8.8 6.1 3.8 71 2.2 SSW 7 11 4 6 1017.3 1017.3 2.0
26/06:30pm 9.4 5.2 3.6 67 2.5 WSW 15 20 8 11 1016.9 1016.8 2.0
26/06:00pm 8.9 5.7 3.1 67 2.5 S 9 15 5 8 1016.5 1016.4 2.0
26/05:30pm 9.5 6.8 3.7 67 2.5 S 7 15 4 8 1016.1 1016.0 2.0
26/05:00pm 10.1 7.1 4.3 67 2.6 SW 9 17 5 9 1015.7 1015.6 2.0
26/04:30pm 10.7 6.9 3.7 62 3.1 S 13 20 7 11 1015.1 1015.0 2.0
26/04:00pm 10.6 6.0 3.6 62 3.1 SSE 17 33 9 18 1015.0 1014.9 2.0
26/03:30pm 11.5 5.9 3.5 58 3.5 SSE 22 35 12 19 1014.5 1014.4 2.0
26/03:00pm 13.5 8.8 3.0 49 4.7 SSW 17 39 9 21 1013.7 1013.7 2.0
26/02:30pm 12.6 8.5 6.4 66 3.0 S 17 32 9 17 1013.4 1013.4 2.0
26/02:00pm 12.3 8.6 8.0 75 2.1 S 17 26 9 14 1013.1 1013.1 1.4
26/01:30pm 11.8 8.7 7.1 73 2.3 SSE 13 22 7 12 1012.8 1012.8 1.4
26/01:00pm 13.3 9.1 5.5 59 3.7 S 17 32 9 17 1012.4 1012.4 1.2
26/12:30pm 12.7 7.1 5.4 61 3.4 S 24 46 13 25 1012.1 1012.1 1.2
26/12:00pm 14.0 10.0 8.2 68 2.9 S 19 33 10 18 1011.7 1011.7 1.2
26/11:30am 12.0 8.0 6.7 70 2.5 S 17 33 9 18 1011.7 1011.7 1.2
26/11:00am 12.9 8.9 8.2 73 2.3 SSW 19 32 10 17 1011.1 1011.1 0.8
26/10:30am 11.0 7.5 8.8 86 1.1 SSE 17 26 9 14 1010.8 1010.8 0.8
26/10:00am 10.4 9.3 9.8 96 0.3 SSE 6 9 3 5 1010.4 1010.4 0.8
26/09:30am 10.0 9.5 9.5 97 0.3 SSW 2 11 1 6 1010.2 1010.2 0.6
26/09:00am 9.9 8.5 9.4 97 0.3 W 7 11 4 6 1009.8 1009.8 17.4
26/08:30am 9.5 9.3 9.0 97 0.2 CALM 0 0 0 0 1009.2 1009.2 17.4
26/08:00am 9.4 7.8 8.8 96 0.3 SW 7 13 4 7 1008.7 1008.7 17.2
26/07:30am 9.2 7.7 8.6 96 0.3 SSW 6 11 3 6 1008.5 1008.5 17.0
26/07:00am 9.3 7.3 8.5 95 0.4 SSW 9 15 5 8 1008.0 1008.0 16.4
26/06:30am 9.7 7.0 8.9 95 0.4 SW 13 22 7 12 1007.4 1007.4 15.0
26/06:00am 9.9 6.9 9.4 97 0.3 SW 15 26 8 14 1006.9 1006.8 13.4
26/05:30am 10.1 6.4 9.3 95 0.4 SW 19 28 10 15 1006.3 1006.2 11.6
26/05:00am 10.4 5.8 9.8 96 0.3 WSW 24 32 13 17 1005.4 1005.3 8.2
26/04:30am 10.9 7.2 10.0 94 0.5 W 20 33 11 18 1004.4 1004.3 6.0
26/04:00am 11.6 9.1 11.0 96 0.3 N 15 24 8 13 1003.5 1003.4 5.2
26/03:30am 10.5 9.9 10.3 99 0.1 WNW 4 7 2 4 1004.0 1003.9 4.8
26/03:00am 9.9 9.5 9.8 99 0.1 NNW 2 7 1 4 1004.3 1004.2 4.8
26/02:30am 8.6 8.3 8.5 99 0.0 CALM 0 0 0 0 1004.4 1004.3 4.8
26/02:00am 8.6 8.3 8.5 99 0.0 CALM 0 0 0 0 1004.3 1004.2 4.8
26/01:30am 9.0 8.8 8.9 99 0.0 CALM 0 0 0 0 1004.6 1004.5 4.8
26/01:00am 9.1 8.9 9.0 99 0.0 CALM 0 0 0 0 1004.8 1004.7 4.8
26/12:30am 9.4 9.2 8.9 97 0.2 CALM 0 0 0 0 1005.3 1005.2 4.8
26/12:00am 10.8 10.9 10.3 97 0.3 CALM 0 0 0 0 1005.7 1005.6 4.8
 
Date/Time
EST
Temp
°C
App
Temp
°C
Dew
Point
°C
Rel
Hum
%
Delta-T
°C
Wind Press
QNH
hPa
Press
MSL
hPa
Rain since
9am
mm
Dir  Spd
km/h
Gust
km/h
Spd
kts
Gust
kts
25/11:30pm 11.6 11.9 11.0 96 0.3 CALM 0 0 0 0 1006.0 1005.9 4.8
25/11:00pm 11.7 12.0 10.9 95 0.4 CALM 0 6 0 3 1006.2 1006.1 4.8
25/10:30pm 12.0 8.7 10.9 93 0.6 WNW 19 33 10 18 1006.5 1006.4 4.0
25/10:00pm 13.4 12.6 12.8 96 0.3 N 9 17 5 9 1005.4 1005.3 1.0
25/09:30pm 11.6 11.7 11.4 99 0.1 NNE 2 7 1 4 1005.9 1005.8 1.0
25/09:00pm 10.4 10.5 10.2 99 0.1 CALM 0 0 0 0 1006.2 1006.1 1.0
25/08:30pm 11.6 11.7 11.4 99 0.1 NNW 2 11 1 6 1006.4 1006.3 1.0
25/08:00pm 11.5 11.5 11.3 99 0.1 WNW 2 6 1 3 1006.5 1006.4 1.0
25/07:30pm 11.6 11.6 11.1 97 0.3 ENE 2 9 1 5 1006.4 1006.3 1.0
25/07:00pm 12.1 12.6 11.5 96 0.3 CALM 0 0 0 0 1006.8 1006.7 1.0
25/06:30pm 13.3 14.1 12.5 95 0.4 CALM 0 4 0 2 1006.8 1006.7 1.0
25/06:00pm 13.8 13.5 12.7 93 0.6 NNE 6 9 3 5 1006.8 1006.7 1.0
25/05:30pm 15.0 15.0 13.5 91 0.8 NNE 6 9 3 5 1006.7 1006.6 1.0
25/05:00pm 15.8 16.0 14.3 91 0.9 N 6 9 3 5 1007.0 1006.9 1.0
25/04:30pm 16.2 16.1 12.2 77 2.2 WNW 4 7 2 4 1007.0 1006.9 0.8
25/04:00pm 16.8 16.6 13.1 79 2.1 ESE 6 7 3 4 1007.0 1006.9 0.8
25/03:30pm 16.5 16.6 13.8 84 1.5 WSW 6 9 3 5 1007.1 1007.0 0.8
25/03:00pm 16.1 15.1 13.4 84 1.5 SW 11 20 6 11 1007.0 1006.9 0.8
25/02:30pm 15.6 14.0 14.0 90 0.9 SW 15 26 8 14 1007.0 1006.9 0.8
25/02:00pm 16.6 15.2 14.6 88 1.2 WSW 15 26 8 14 1007.0 1006.9 0.8
25/01:30pm 16.0 14.4 15.0 94 0.6 WSW 17 24 9 13 1007.2 1007.2 0.8
25/01:00pm 16.0 13.6 14.4 90 0.9 SW 20 28 11 15 1007.2 1007.2 0.8
25/12:30pm 16.6 15.1 15.3 92 0.8 WSW 17 22 9 12 1007.3 1007.3 0.8
25/12:00pm 17.1 16.9 14.7 86 1.4 W 9 15 5 8 1007.6 1007.6 0.0
25/11:30am 16.7 16.7 15.1 90 0.9 WNW 9 15 5 8 1008.0 1008.0 0.0
25/11:00am 16.1 14.7 14.6 91 0.9 W 15 20 8 11 1008.3 1008.3 0.0
25/10:30am 16.4 14.8 15.1 92 0.8 W 17 22 9 12 1008.2 1008.2 0.0

Other Formats:

Comma delimited format used in spreadsheet applications
http://www.bom.gov.au/fwo/IDV60801/IDV60801.94864.axf

JavaScript Object Notation format (JSON) in row-major order
http://www.bom.gov.au/fwo/IDV60801/IDV60801.94864.json